Time;durP1;ratioP1;P1;durP2;ratioP2;P2;SDS_P1;SDS_P2;PMS_P1;PMS_P2;Temp;Humidity;BMP_temperature;BMP_pressure;BME280_temperature;BME280_humidity;BME280_pressure;Samples;Min_cycle;Max_cycle;Signal;HPM_P1;HPM_P2
2022/03/24 00:01:35;;;;;;;;;;;16.10;34.10;;;;;;5084341;28;42885;-72
2022/03/24 00:04:01;;;;;;;;;;;16.20;33.60;;;;;;5084237;28;42931;-72
2022/03/24 00:06:27;;;;;;;;;;;16.00;33.90;;;;;;5083199;28;43939;-73
2022/03/24 00:08:53;;;;;;;;;;;16.10;33.50;;;;;;5085588;27;43099;-73
2022/03/24 00:11:20;;;;;;;;;;;16.10;33.50;;;;;;5087827;28;43577;-73
2022/03/24 00:13:48;;;;;;;;;;;16.10;34.00;;;;;;5087775;27;43094;-73
2022/03/24 00:16:15;;;;;;;;;;;16.10;33.70;;;;;;5087270;27;43050;-73
2022/03/24 00:18:41;;;;;;;;;;;15.90;33.50;;;;;;5087646;28;42996;-73
2022/03/24 00:21:06;;;;;;;;;;;16.00;33.70;;;;;;5087334;28;42846;-73
2022/03/24 00:23:32;;;;;;;;;;;16.00;33.70;;;;;;5087274;28;42927;-73
2022/03/24 00:25:57;;;;;;;;;;;16.00;33.70;;;;;;5088097;28;43415;-73
2022/03/24 00:28:23;;;;;;;;;;;15.90;34.20;;;;;;5086884;28;42961;-73
2022/03/24 00:30:49;;;;;;;;;;;16.00;34.20;;;;;;5087225;28;43585;-73
2022/03/24 00:33:14;;;;;;;;;;;16.00;34.40;;;;;;5087169;28;42843;-72
2022/03/24 00:35:40;;;;;;;;;;;15.90;34.50;;;;;;5087711;28;43529;-73
2022/03/24 00:38:05;;;;;;;;;;;16.00;34.00;;;;;;5087603;28;42949;-73
2022/03/24 00:40:32;;;;;;;;;;;16.00;34.50;;;;;;5086000;28;43051;-73
2022/03/24 00:42:59;;;;;;;;;;;16.00;34.00;;;;;;5086646;28;43617;-73
2022/03/24 00:45:25;;;;;;;;;;;16.00;33.90;;;;;;5086626;28;43875;-73
2022/03/24 00:47:50;;;;;;;;;;;15.80;33.80;;;;;;5087150;28;42872;-73
2022/03/24 00:50:16;;;;;;;;;;;15.90;33.80;;;;;;5086530;28;42853;-73
2022/03/24 00:52:41;;;;;;;;;;;15.90;34.40;;;;;;5087447;28;42892;-73
2022/03/24 00:55:18;;;;;;;;;;;16.00;33.80;;;;;;5087106;27;43055;-73
2022/03/24 00:57:44;;;;;;;;;;;15.90;33.90;;;;;;5087136;28;42826;-72
2022/03/24 01:00:15;;;;;;;;;;;16.00;34.00;;;;;;5086948;27;42807;-73
2022/03/24 01:02:41;;;;;;;;;;;15.90;34.20;;;;;;5087161;28;42971;-73
2022/03/24 01:05:07;;;;;;;;;;;15.80;33.90;;;;;;5086958;28;43882;-73
2022/03/24 01:07:33;;;;;;;;;;;15.80;33.80;;;;;;5087507;28;43054;-75
2022/03/24 01:09:59;;;;;;;;;;;16.00;33.90;;;;;;5087262;28;42999;-73
2022/03/24 01:12:24;;;;;;;;;;;15.70;33.90;;;;;;5086685;28;42957;-73
2022/03/24 01:14:50;;;;;;;;;;;16.00;34.40;;;;;;5087439;28;43507;-73
2022/03/24 01:17:16;;;;;;;;;;;16.00;33.90;;;;;;5087325;28;42987;-73
2022/03/24 01:19:42;;;;;;;;;;;16.00;34.10;;;;;;5085884;28;42965;-73
2022/03/24 01:22:07;;;;;;;;;;;15.90;34.50;;;;;;5087232;28;42810;-74
2022/03/24 01:24:38;;;;;;;;;;;15.90;34.00;;;;;;5087131;28;43171;-75
2022/03/24 01:27:06;;;;;;;;;;;15.90;34.10;;;;;;5087047;28;42952;-73
2022/03/24 01:29:32;;;;;;;;;;;15.80;34.00;;;;;;5086460;28;43463;-73
2022/03/24 01:31:58;;;;;;;;;;;15.80;34.10;;;;;;5087306;28;42822;-74
2022/03/24 01:34:24;;;;;;;;;;;15.70;33.90;;;;;;5086902;28;43428;-74
2022/03/24 01:36:50;;;;;;;;;;;15.80;34.00;;;;;;5086789;28;42970;-74
2022/03/24 01:39:15;;;;;;;;;;;15.90;34.20;;;;;;5087288;28;42927;-73
2022/03/24 01:41:41;;;;;;;;;;;15.80;34.20;;;;;;5086537;28;43023;-74
2022/03/24 01:44:14;;;;;;;;;;;15.80;34.10;;;;;;5085984;28;44040;-72
2022/03/24 01:46:59;;;;;;;;;;;15.70;34.10;;;;;;5086119;28;43107;-73
2022/03/24 01:49:25;;;;;;;;;;;15.90;32.50;;;;;;5086008;28;42956;-76
2022/03/24 01:51:51;;;;;;;;;;;15.80;34.00;;;;;;5086850;28;42971;-73
2022/03/24 01:54:17;;;;;;;;;;;15.70;34.50;;;;;;5086270;28;43008;-73
2022/03/24 01:56:43;;;;;;;;;;;15.70;34.00;;;;;;5085733;28;43000;-73
2022/03/24 01:59:10;;;;;;;;;;;15.80;34.00;;;;;;5086418;28;43107;-73
2022/03/24 02:01:37;;;;;;;;;;;15.70;34.00;;;;;;5086150;28;42937;-73
2022/03/24 02:04:06;;;;;;;;;;;15.70;34.00;;;;;;5086143;28;42838;-76
2022/03/24 02:06:32;;;;;;;;;;;15.60;34.40;;;;;;5086583;28;42729;-73
2022/03/24 02:08:58;;;;;;;;;;;15.70;34.20;;;;;;5086738;28;42854;-72
2022/03/24 02:11:24;;;;;;;;;;;15.60;34.70;;;;;;5086803;28;42988;-72
2022/03/24 02:13:49;;;;;;;;;;;15.70;34.40;;;;;;5086461;28;43194;-72
2022/03/24 02:16:15;;;;;;;;;;;15.80;35.10;;;;;;5086231;28;42921;-72
2022/03/24 02:18:41;;;;;;;;;;;15.60;34.30;;;;;;5086102;28;42949;-72
2022/03/24 02:21:06;;;;;;;;;;;15.70;34.30;;;;;;5086880;28;42897;-72
2022/03/24 02:23:32;;;;;;;;;;;15.70;34.40;;;;;;5086019;28;42866;-72
2022/03/24 02:25:58;;;;;;;;;;;15.60;34.60;;;;;;5086169;28;42920;-72
2022/03/24 02:28:23;;;;;;;;;;;15.60;34.30;;;;;;5086156;28;43783;-73
2022/03/24 02:30:50;;;;;;;;;;;15.70;34.30;;;;;;5085421;27;42917;-74
2022/03/24 02:33:20;;;;;;;;;;;15.70;34.30;;;;;;5084665;28;44364;-72
2022/03/24 02:35:46;;;;;;;;;;;15.70;34.90;;;;;;5084620;28;43146;-75
2022/03/24 02:38:11;;;;;;;;;;;15.70;34.50;;;;;;5076310;28;43830;-73
2022/03/24 02:40:37;;;;;;;;;;;15.60;34.80;;;;;;5085388;28;43329;-73
2022/03/24 02:43:02;;;;;;;;;;;15.70;34.50;;;;;;5084243;28;43925;-73
2022/03/24 02:45:28;;;;;;;;;;;15.60;34.80;;;;;;5084835;28;42997;-73
2022/03/24 02:47:54;;;;;;;;;;;15.70;34.40;;;;;;5084145;27;42898;-73
2022/03/24 02:50:22;;;;;;;;;;;15.70;34.80;;;;;;5084405;28;42876;-73
2022/03/24 02:52:47;;;;;;;;;;;15.60;34.70;;;;;;5084995;28;43356;-73
2022/03/24 02:55:13;;;;;;;;;;;15.60;34.20;;;;;;5085123;27;43003;-73
2022/03/24 02:57:38;;;;;;;;;;;15.60;34.10;;;;;;5083655;28;43689;-73
2022/03/24 03:00:05;;;;;;;;;;;15.70;34.20;;;;;;5084161;28;42935;-73
2022/03/24 03:02:31;;;;;;;;;;;15.50;34.20;;;;;;5083767;27;43730;-74
2022/03/24 03:04:56;;;;;;;;;;;15.70;34.20;;;;;;5084903;28;42907;-75
2022/03/24 03:07:22;;;;;;;;;;;15.50;34.60;;;;;;5085020;28;43162;-74
2022/03/24 03:09:48;;;;;;;;;;;15.60;34.40;;;;;;5084261;27;42954;-74
2022/03/24 03:12:16;;;;;;;;;;;15.50;34.30;;;;;;5084300;27;42761;-74
2022/03/24 03:14:42;;;;;;;;;;;15.70;34.90;;;;;;5084235;28;43002;-74
2022/03/24 03:17:08;;;;;;;;;;;15.40;34.40;;;;;;5084394;28;42916;-76
2022/03/24 03:19:34;;;;;;;;;;;15.40;34.70;;;;;;5085077;28;42885;-74
2022/03/24 03:21:59;;;;;;;;;;;15.50;35.00;;;;;;5082191;28;43287;-74
2022/03/24 03:24:25;;;;;;;;;;;15.30;34.70;;;;;;5069093;27;43049;-73
2022/03/24 03:26:52;;;;;;;;;;;15.50;35.00;;;;;;5073870;28;43006;-72
2022/03/24 03:29:18;;;;;;;;;;;15.40;34.90;;;;;;5082640;28;43074;-73
2022/03/24 03:31:44;;;;;;;;;;;15.70;34.50;;;;;;5084586;28;43430;-73
2022/03/24 03:34:10;;;;;;;;;;;15.50;34.80;;;;;;5083882;28;43250;-73
2022/03/24 03:36:37;;;;;;;;;;;15.40;34.40;;;;;;5083859;28;43870;-73
2022/03/24 03:39:04;;;;;;;;;;;15.50;34.70;;;;;;5083923;28;43044;-74
2022/03/24 03:41:29;;;;;;;;;;;15.50;34.10;;;;;;5084277;28;42964;-75
2022/03/24 03:43:55;;;;;;;;;;;15.40;34.70;;;;;;5085434;27;43023;-75
2022/03/24 03:46:22;;;;;;;;;;;15.50;34.40;;;;;;5087683;28;43015;-75
2022/03/24 03:48:47;;;;;;;;;;;15.40;34.30;;;;;;5088034;28;42818;-76
2022/03/24 03:51:13;;;;;;;;;;;15.60;34.50;;;;;;5087345;28;43302;-75
2022/03/24 03:53:38;;;;;;;;;;;15.60;34.80;;;;;;5087914;28;43023;-76
2022/03/24 03:56:05;;;;;;;;;;;15.30;34.40;;;;;;5087495;28;42917;-73
2022/03/24 03:58:31;;;;;;;;;;;15.40;34.80;;;;;;5087908;28;42901;-72
2022/03/24 04:00:57;;;;;;;;;;;15.40;34.70;;;;;;5086012;27;43001;-75
2022/03/24 04:03:23;;;;;;;;;;;15.40;34.20;;;;;;5086930;27;42885;-75
2022/03/24 04:05:50;;;;;;;;;;;15.40;34.70;;;;;;5086800;27;42953;-74
2022/03/24 04:08:16;;;;;;;;;;;15.40;34.30;;;;;;5067846;28;43016;-75
2022/03/24 04:10:42;;;;;;;;;;;15.50;34.10;;;;;;5067241;28;43002;-75
2022/03/24 04:13:08;;;;;;;;;;;15.30;34.30;;;;;;5088001;28;42831;-74
2022/03/24 04:15:34;;;;;;;;;;;15.20;34.60;;;;;;5088439;28;43384;-74
2022/03/24 04:18:00;;;;;;;;;;;15.50;34.50;;;;;;5085689;27;43380;-76
2022/03/24 04:20:26;;;;;;;;;;;15.30;34.40;;;;;;5087046;28;42994;-74
2022/03/24 04:22:52;;;;;;;;;;;15.20;34.70;;;;;;5085785;28;42932;-73
2022/03/24 04:25:18;;;;;;;;;;;15.80;34.50;;;;;;5086711;27;43853;-75
2022/03/24 04:27:44;;;;;;;;;;;15.40;34.70;;;;;;5087066;28;43418;-74
2022/03/24 04:30:12;;;;;;;;;;;15.30;34.70;;;;;;5085843;27;43430;-74
2022/03/24 04:32:41;;;;;;;;;;;15.70;35.30;;;;;;5069542;28;42970;-73
2022/03/24 04:35:07;;;;;;;;;;;15.30;35.00;;;;;;5087178;28;43087;-74
2022/03/24 04:37:33;;;;;;;;;;;15.40;35.20;;;;;;5087134;28;42881;-75
2022/03/24 04:39:59;;;;;;;;;;;15.30;35.00;;;;;;5085571;28;43971;-74
2022/03/24 04:42:24;;;;;;;;;;;15.50;35.00;;;;;;5087185;28;42835;-73
2022/03/24 04:44:50;;;;;;;;;;;15.30;35.00;;;;;;5087662;28;44089;-74
2022/03/24 04:47:15;;;;;;;;;;;15.20;35.70;;;;;;5087059;28;42969;-73
2022/03/24 04:49:41;;;;;;;;;;;15.40;35.60;;;;;;5087415;28;42858;-73
2022/03/24 04:52:07;;;;;;;;;;;15.50;35.00;;;;;;5087091;28;42948;-73
2022/03/24 04:54:33;;;;;;;;;;;15.20;35.00;;;;;;5087481;27;42977;-73
2022/03/24 04:56:58;;;;;;;;;;;15.30;35.00;;;;;;5082022;28;43002;-73
2022/03/24 04:59:24;;;;;;;;;;;15.30;35.00;;;;;;5083947;28;42962;-74
2022/03/24 05:01:49;;;;;;;;;;;15.20;35.50;;;;;;5083751;28;43083;-73
2022/03/24 05:04:15;;;;;;;;;;;15.50;35.80;;;;;;5086137;28;43419;-73
2022/03/24 05:06:41;;;;;;;;;;;14.50;34.80;;;;;;5085089;28;42985;-73
2022/03/24 05:09:07;;;;;;;;;;;15.10;35.50;;;;;;5086535;28;43540;-74
2022/03/24 05:11:32;;;;;;;;;;;15.10;35.60;;;;;;5085393;28;43720;-74
2022/03/24 05:13:58;;;;;;;;;;;15.30;35.30;;;;;;5086565;28;43612;-74
2022/03/24 05:16:24;;;;;;;;;;;15.40;35.30;;;;;;5081893;28;42959;-73
2022/03/24 05:18:49;;;;;;;;;;;15.30;35.20;;;;;;5082183;28;42880;-73
2022/03/24 05:21:15;;;;;;;;;;;15.40;35.30;;;;;;5085860;28;43073;-73
2022/03/24 05:23:40;;;;;;;;;;;15.40;35.30;;;;;;5085324;28;42974;-74
2022/03/24 05:26:07;;;;;;;;;;;15.60;34.10;;;;;;5075716;28;43255;-73
2022/03/24 05:28:32;;;;;;;;;;;15.40;33.30;;;;;;5073989;28;43487;-76
2022/03/24 05:30:58;;;;;;;;;;;15.20;32.90;;;;;;5084462;28;43250;-75
2022/03/24 05:33:24;;;;;;;;;;;15.20;32.20;;;;;;5085810;27;43742;-73
2022/03/24 05:35:50;;;;;;;;;;;15.20;32.30;;;;;;5085349;27;43071;-73
2022/03/24 05:38:16;;;;;;;;;;;15.10;32.20;;;;;;5085402;28;43581;-73
2022/03/24 05:40:41;;;;;;;;;;;14.80;31.80;;;;;;5084904;28;42945;-73
2022/03/24 05:43:07;;;;;;;;;;;15.00;31.90;;;;;;5086111;28;43126;-72
2022/03/24 05:45:32;;;;;;;;;;;15.00;31.70;;;;;;5084425;28;43012;-74
2022/03/24 05:47:58;;;;;;;;;;;15.20;31.80;;;;;;5084827;28;42985;-77
2022/03/24 05:50:27;;;;;;;;;;;15.00;32.20;;;;;;5085292;28;43341;-73
2022/03/24 05:52:53;;;;;;;;;;;15.20;31.70;;;;;;5083893;27;43382;-76
2022/03/24 05:55:19;;;;;;;;;;;15.10;32.20;;;;;;5084086;27;42975;-73
2022/03/24 05:57:44;;;;;;;;;;;15.00;32.30;;;;;;5085170;28;42932;-74
2022/03/24 06:00:10;;;;;;;;;;;15.10;31.90;;;;;;5083418;27;42975;-78
2022/03/24 06:02:36;;;;;;;;;;;15.10;31.80;;;;;;5084541;28;42900;-75
2022/03/24 06:05:05;;;;;;;;;;;15.10;31.80;;;;;;5086298;28;42958;-75
2022/03/24 06:07:30;;;;;;;;;;;15.20;31.90;;;;;;5085201;27;42930;-76
2022/03/24 06:09:57;;;;;;;;;;;14.90;32.30;;;;;;5085467;28;43253;-73
2022/03/24 06:12:24;;;;;;;;;;;15.00;32.00;;;;;;5085880;27;43992;-75
2022/03/24 06:14:51;;;;;;;;;;;14.90;32.20;;;;;;5085996;27;42973;-75
2022/03/24 06:17:18;;;;;;;;;;;14.80;32.20;;;;;;5084930;28;42948;-74
2022/03/24 06:19:44;;;;;;;;;;;14.90;32.60;;;;;;5085576;27;42995;-74
2022/03/24 06:22:12;;;;;;;;;;;15.00;31.70;;;;;;5084048;27;43391;-73
2022/03/24 06:24:37;;;;;;;;;;;15.00;32.00;;;;;;5085844;27;42985;-75
2022/03/24 06:27:03;;;;;;;;;;;15.10;31.60;;;;;;5087345;28;43443;-74
2022/03/24 06:29:28;;;;;;;;;;;15.10;31.90;;;;;;5086685;28;43249;-75
2022/03/24 06:31:54;;;;;;;;;;;15.10;32.00;;;;;;5084974;28;43778;-74
2022/03/24 06:34:19;;;;;;;;;;;15.20;31.90;;;;;;5084799;28;43042;-73
2022/03/24 06:36:45;;;;;;;;;;;15.30;31.60;;;;;;5084468;28;43912;-74
2022/03/24 06:39:11;;;;;;;;;;;15.40;31.70;;;;;;5085700;28;42973;-73
2022/03/24 06:41:36;;;;;;;;;;;15.40;32.00;;;;;;5084906;27;43042;-73
2022/03/24 06:44:05;;;;;;;;;;;15.40;32.20;;;;;;5084746;28;42943;-74
2022/03/24 06:46:32;;;;;;;;;;;15.60;31.60;;;;;;5084553;28;43048;-73
2022/03/24 06:48:57;;;;;;;;;;;15.60;31.50;;;;;;5083605;28;43022;-73
2022/03/24 06:51:23;;;;;;;;;;;15.50;31.50;;;;;;5084507;27;43422;-73
2022/03/24 06:53:49;;;;;;;;;;;15.60;32.20;;;;;;5085321;28;42788;-73
2022/03/24 06:56:14;;;;;;;;;;;15.70;31.60;;;;;;5085041;28;44153;-73
2022/03/24 06:58:40;;;;;;;;;;;20.30;34.40;;;;;;5084425;28;42878;-76
2022/03/24 07:01:06;;;;;;;;;;;15.90;31.70;;;;;;5084170;27;43522;-75
2022/03/24 07:03:31;;;;;;;;;;;15.90;32.40;;;;;;5084598;28;43740;-75
2022/03/24 07:05:57;;;;;;;;;;;16.00;31.80;;;;;;5078255;28;42929;-74
2022/03/24 07:08:26;;;;;;;;;;;16.00;32.30;;;;;;5082303;28;42918;-76
2022/03/24 07:10:51;;;;;;;;;;;16.20;31.40;;;;;;5082998;28;43628;-75
2022/03/24 07:13:17;;;;;;;;;;;16.20;32.00;;;;;;5083693;27;43008;-75
2022/03/24 07:15:43;;;;;;;;;;;16.20;31.80;;;;;;5074142;28;44025;-75
2022/03/24 07:18:09;;;;;;;;;;;16.20;31.50;;;;;;5084323;28;42890;-74
2022/03/24 07:20:35;;;;;;;;;;;16.20;31.40;;;;;;5083688;27;43827;-76
2022/03/24 07:23:03;;;;;;;;;;;16.20;31.70;;;;;;5083764;28;42992;-76
2022/03/24 07:25:29;;;;;;;;;;;16.10;31.70;;;;;;5082987;27;43051;-75
2022/03/24 07:27:54;;;;;;;;;;;16.80;31.90;;;;;;5083755;27;42919;-76
2022/03/24 07:30:20;;;;;;;;;;;16.30;31.90;;;;;;5075403;28;43542;-77
2022/03/24 07:32:46;;;;;;;;;;;16.30;32.30;;;;;;5071595;28;43531;-77
2022/03/24 07:35:14;;;;;;;;;;;16.30;32.20;;;;;;5082332;27;43574;-78
2022/03/24 07:37:40;;;;;;;;;;;16.30;31.90;;;;;;5081737;28;43276;-77
2022/03/24 07:40:07;;;;;;;;;;;16.50;31.60;;;;;;5084103;27;43399;-76
2022/03/24 07:42:33;;;;;;;;;;;16.40;31.60;;;;;;5079453;28;43016;-77
2022/03/24 07:44:58;;;;;;;;;;;16.40;32.50;;;;;;5083113;28;42932;-77
2022/03/24 07:47:24;;;;;;;;;;;16.40;31.60;;;;;;5084103;27;43012;-75
2022/03/24 07:49:50;;;;;;;;;;;16.40;32.20;;;;;;5083657;28;43016;-75
2022/03/24 07:52:15;;;;;;;;;;;16.40;31.50;;;;;;5083596;28;42963;-76
2022/03/24 07:54:48;;;;;;;;;;;16.40;31.30;;;;;;5081109;28;44440;-76
2022/03/24 07:57:13;;;;;;;;;;;16.70;31.00;;;;;;5083446;28;43079;-75
2022/03/24 07:59:39;;;;;;;;;;;16.50;30.60;;;;;;5083130;28;43962;-75
2022/03/24 08:02:05;;;;;;;;;;;16.60;31.20;;;;;;5083744;28;42892;-74
2022/03/24 08:04:30;;;;;;;;;;;16.50;30.70;;;;;;5081686;28;42936;-74
2022/03/24 08:06:56;;;;;;;;;;;16.50;29.10;;;;;;5084426;28;43194;-76
2022/03/24 08:09:21;;;;;;;;;;;16.50;29.90;;;;;;5082693;28;43951;-74
2022/03/24 08:11:48;;;;;;;;;;;16.60;30.10;;;;;;5084777;28;42979;-74
2022/03/24 08:14:14;;;;;;;;;;;16.50;30.30;;;;;;5083664;28;43399;-75
2022/03/24 08:16:39;;;;;;;;;;;16.60;30.00;;;;;;5080990;28;42912;-74
2022/03/24 08:19:05;;;;;;;;;;;16.60;30.80;;;;;;5084029;28;44020;-75
2022/03/24 08:21:30;;;;;;;;;;;16.60;30.50;;;;;;5083666;28;42766;-74
2022/03/24 08:23:56;;;;;;;;;;;16.50;29.80;;;;;;5083903;28;43670;-75
2022/03/24 08:26:22;;;;;;;;;;;16.60;29.50;;;;;;5081133;27;43015;-75
2022/03/24 08:28:47;;;;;;;;;;;16.70;29.10;;;;;;5083288;27;42917;-75
2022/03/24 08:31:13;;;;;;;;;;;16.70;29.40;;;;;;5082725;27;43155;-76
2022/03/24 08:33:39;;;;;;;;;;;16.60;29.70;;;;;;5084425;28;44535;-75
2022/03/24 08:36:04;;;;;;;;;;;16.70;30.00;;;;;;5086300;27;43045;-75
2022/03/24 08:38:30;;;;;;;;;;;16.70;30.40;;;;;;5087288;27;42942;-75
2022/03/24 08:40:55;;;;;;;;;;;16.70;30.20;;;;;;5086623;28;42964;-75
2022/03/24 08:43:21;;;;;;;;;;;16.90;30.00;;;;;;5086230;28;43679;-76
2022/03/24 08:45:46;;;;;;;;;;;16.80;29.90;;;;;;5084737;28;42976;-75
2022/03/24 08:48:12;;;;;;;;;;;16.80;30.50;;;;;;5080578;28;43095;-75
2022/03/24 08:50:37;;;;;;;;;;;16.70;30.50;;;;;;5086426;27;43028;-76
2022/03/24 08:53:04;;;;;;;;;;;16.90;30.00;;;;;;5086078;27;43499;-77
2022/03/24 08:55:29;;;;;;;;;;;16.70;30.10;;;;;;5081254;28;42957;-75
2022/03/24 08:57:55;;;;;;;;;;;16.80;30.30;;;;;;5086191;28;44133;-76
2022/03/24 09:00:23;;;;;;;;;;;16.70;28.80;;;;;;5086182;27;42812;-76
2022/03/24 09:02:49;;;;;;;;;;;16.70;29.10;;;;;;5083894;28;43675;-76
2022/03/24 09:05:18;;;;;;;;;;;16.90;28.80;;;;;;5087762;27;42922;-76
2022/03/24 09:07:44;;;;;;;;;;;16.90;29.00;;;;;;5087520;27;42920;-75
2022/03/24 09:10:10;;;;;;;;;;;16.90;29.10;;;;;;5085659;27;42949;-75
2022/03/24 09:12:38;;;;;;;;;;;16.90;29.20;;;;;;5086788;27;43848;-75
2022/03/24 09:15:13;;;;;;;;;;;16.90;29.00;;;;;;5086953;27;42838;-74
2022/03/24 09:17:39;;;;;;;;;;;17.00;29.20;;;;;;5086893;27;43436;-75
2022/03/24 09:20:09;;;;;;;;;;;16.90;29.40;;;;;;5086837;28;42872;-74
2022/03/24 09:22:42;;;;;;;;;;;16.90;28.80;;;;;;5087272;27;42940;-74
2022/03/24 09:25:08;;;;;;;;;;;16.90;28.70;;;;;;5087289;28;42987;-74
2022/03/24 09:27:34;;;;;;;;;;;16.90;28.70;;;;;;5087135;27;42858;-74
2022/03/24 09:29:59;;;;;;;;;;;17.00;28.80;;;;;;5086573;27;43088;-74
2022/03/24 09:32:25;;;;;;;;;;;17.00;29.60;;;;;;5086593;27;43574;-74
2022/03/24 09:34:50;;;;;;;;;;;16.90;29.30;;;;;;5086641;27;42968;-73
2022/03/24 09:37:18;;;;;;;;;;;17.10;29.20;;;;;;5086612;27;42949;-72
2022/03/24 09:39:44;;;;;;;;;;;17.00;29.50;;;;;;5086992;28;42886;-72
2022/03/24 09:42:09;;;;;;;;;;;17.10;28.90;;;;;;5085436;27;42871;-74
2022/03/24 09:44:35;;;;;;;;;;;17.10;28.70;;;;;;5087048;28;42931;-74
2022/03/24 09:47:01;;;;;;;;;;;17.00;29.00;;;;;;5087078;28;42991;-74
2022/03/24 09:49:27;;;;;;;;;;;16.90;28.80;;;;;;5087051;28;42898;-74
2022/03/24 09:51:52;;;;;;;;;;;17.20;28.10;;;;;;5086809;28;43046;-75
2022/03/24 09:54:18;;;;;;;;;;;17.20;28.20;;;;;;5086824;28;42847;-74
2022/03/24 09:56:43;;;;;;;;;;;17.10;29.10;;;;;;5086512;28;42687;-74
2022/03/24 09:59:09;;;;;;;;;;;17.10;28.80;;;;;;5086724;27;42928;-74
2022/03/24 10:01:41;;;;;;;;;;;17.10;28.20;;;;;;5086375;27;43015;-75
2022/03/24 10:04:07;;;;;;;;;;;17.30;28.60;;;;;;5086443;27;42933;-74
2022/03/24 10:06:34;;;;;;;;;;;17.20;29.00;;;;;;5086178;27;43867;-74
2022/03/24 10:09:00;;;;;;;;;;;17.10;28.90;;;;;;5086585;27;43172;-75
2022/03/24 10:11:26;;;;;;;;;;;17.20;28.70;;;;;;5086483;27;43469;-75
2022/03/24 10:13:56;;;;;;;;;;;17.10;28.90;;;;;;5086398;27;42952;-74
2022/03/24 10:16:34;;;;;;;;;;;17.10;29.20;;;;;;5084477;28;43761;-75
2022/03/24 10:19:03;;;;;;;;;;;17.20;28.60;;;;;;5086652;27;43125;-74
2022/03/24 10:21:29;;;;;;;;;;;17.20;29.30;;;;;;5086219;27;42921;-74
2022/03/24 10:23:57;;;;;;;;;;;17.20;29.20;;;;;;5086226;27;42905;-73
2022/03/24 10:26:38;;;;;;;;;;;17.20;28.80;;;;;;5086078;28;42946;-73
2022/03/24 10:29:03;;;;;;;;;;;17.20;29.20;;;;;;5085585;27;42863;-73
2022/03/24 10:31:32;;;;;;;;;;;17.20;29.40;;;;;;5085437;28;43159;-75
2022/03/24 10:33:58;;;;;;;;;;;17.30;29.10;;;;;;5086261;28;42936;-74
2022/03/24 10:36:26;;;;;;;;;;;17.20;29.40;;;;;;5084697;28;43035;-74
2022/03/24 10:38:53;;;;;;;;;;;17.30;29.00;;;;;;5085816;28;43117;-74
2022/03/24 10:41:23;;;;;;;;;;;17.20;29.00;;;;;;5085780;28;44447;-75
2022/03/24 10:43:50;;;;;;;;;;;17.30;28.90;;;;;;5086290;28;43480;-75
2022/03/24 10:46:15;;;;;;;;;;;17.30;29.60;;;;;;5086195;27;42951;-74
2022/03/24 10:48:41;;;;;;;;;;;17.30;29.00;;;;;;5085940;27;42836;-75
2022/03/24 10:51:07;;;;;;;;;;;17.40;29.40;;;;;;5085504;27;42960;-74
2022/03/24 10:53:42;;;;;;;;;;;17.20;29.50;;;;;;5085394;27;42780;-74
2022/03/24 10:56:11;;;;;;;;;;;17.30;29.40;;;;;;5085428;28;43535;-75
2022/03/24 10:58:42;;;;;;;;;;;17.30;29.60;;;;;;5085498;28;43055;-74
2022/03/24 11:01:12;;;;;;;;;;;17.30;30.10;;;;;;5085250;27;42960;-75
2022/03/24 11:03:39;;;;;;;;;;;17.40;30.20;;;;;;5085844;28;43178;-75
2022/03/24 11:06:12;;;;;;;;;;;17.40;30.30;;;;;;5085682;27;43546;-75
2022/03/24 11:08:37;;;;;;;;;;;17.40;29.90;;;;;;5084351;28;42953;-74
2022/03/24 11:11:10;;;;;;;;;;;17.40;30.40;;;;;;5085102;28;43503;-75
2022/03/24 11:13:55;;;;;;;;;;;17.40;30.00;;;;;;5084850;27;42959;-75
2022/03/24 11:16:27;;;;;;;;;;;17.50;30.10;;;;;;5085211;27;43835;-75
2022/03/24 11:18:54;;;;;;;;;;;17.50;30.30;;;;;;5085381;28;42896;-75
2022/03/24 11:21:22;;;;;;;;;;;17.60;30.00;;;;;;5085249;27;43021;-75
2022/03/24 11:23:49;;;;;;;;;;;17.50;30.10;;;;;;5085779;27;42922;-75
2022/03/24 11:26:15;;;;;;;;;;;17.40;30.60;;;;;;5085438;27;43389;-74
2022/03/24 11:28:41;;;;;;;;;;;17.40;30.10;;;;;;5085244;28;42941;-75
2022/03/24 11:31:08;;;;;;;;;;;17.40;30.10;;;;;;5085360;27;43011;-75
2022/03/24 11:33:36;;;;;;;;;;;17.40;30.10;;;;;;5084864;28;42978;-75
2022/03/24 11:36:02;;;;;;;;;;;17.50;30.60;;;;;;5085294;28;43600;-75
2022/03/24 11:38:28;;;;;;;;;;;17.40;30.70;;;;;;5085646;28;43158;-75
2022/03/24 11:40:59;;;;;;;;;;;17.60;30.30;;;;;;5084925;27;42812;-74
2022/03/24 11:43:25;;;;;;;;;;;17.60;30.00;;;;;;5085478;28;43084;-74
2022/03/24 11:45:59;;;;;;;;;;;17.50;30.50;;;;;;5085623;28;43075;-75
2022/03/24 11:48:35;;;;;;;;;;;17.50;29.90;;;;;;5085293;28;42956;-75
2022/03/24 11:51:21;;;;;;;;;;;17.40;29.90;;;;;;5084429;28;42951;-75
2022/03/24 11:53:59;;;;;;;;;;;17.60;30.00;;;;;;5085404;28;42987;-77
2022/03/24 11:56:25;;;;;;;;;;;17.60;29.60;;;;;;5084945;27;43522;-75
2022/03/24 11:58:53;;;;;;;;;;;17.70;29.50;;;;;;5085486;28;42972;-75
2022/03/24 12:01:19;;;;;;;;;;;17.60;29.60;;;;;;5083515;28;45080;-74
2022/03/24 12:03:50;;;;;;;;;;;17.60;29.40;;;;;;5083709;27;43074;-75
2022/03/24 12:06:17;;;;;;;;;;;17.60;29.60;;;;;;5087056;28;43565;-75
2022/03/24 12:08:50;;;;;;;;;;;17.50;29.80;;;;;;5087088;27;43056;-75
2022/03/24 12:11:34;;;;;;;;;;;17.80;29.60;;;;;;5088552;27;43897;-74
2022/03/24 12:14:16;;;;;;;;;;;17.80;28.90;;;;;;5088190;27;43559;-75
2022/03/24 12:16:51;;;;;;;;;;;17.80;28.90;;;;;;5087757;27;43721;-74
2022/03/24 12:19:32;;;;;;;;;;;17.80;28.70;;;;;;5088326;27;42935;-74
2022/03/24 12:21:58;;;;;;;;;;;17.90;28.70;;;;;;5087945;27;43026;-74
2022/03/24 12:24:24;;;;;;;;;;;17.90;29.40;;;;;;5088627;27;42955;-74
2022/03/24 12:26:54;;;;;;;;;;;17.90;28.70;;;;;;5088370;27;43524;-74
2022/03/24 12:29:19;;;;;;;;;;;17.80;29.00;;;;;;5088382;27;42896;-73
2022/03/24 12:31:53;;;;;;;;;;;17.50;28.80;;;;;;5088189;28;42947;-75
2022/03/24 12:34:21;;;;;;;;;;;17.70;28.80;;;;;;5088392;28;42759;-74
2022/03/24 12:36:47;;;;;;;;;;;17.70;29.20;;;;;;5088120;27;44363;-75
2022/03/24 12:39:28;;;;;;;;;;;17.70;28.70;;;;;;5088517;27;43478;-74
2022/03/24 12:42:13;;;;;;;;;;;17.80;29.30;;;;;;5088182;28;43353;-73
2022/03/24 12:44:48;;;;;;;;;;;17.80;28.50;;;;;;5087920;27;42932;-74
2022/03/24 12:47:34;;;;;;;;;;;17.80;28.60;;;;;;5087384;28;42917;-73
2022/03/24 12:50:06;;;;;;;;;;;18.00;28.50;;;;;;5087564;27;42790;-73
2022/03/24 12:52:50;;;;;;;;;;;17.90;28.50;;;;;;5087488;28;42954;-73
2022/03/24 12:55:33;;;;;;;;;;;17.80;28.40;;;;;;5088015;27;43066;-73
2022/03/24 12:58:00;;;;;;;;;;;17.80;28.50;;;;;;5087885;28;43034;-73
2022/03/24 13:00:27;;;;;;;;;;;17.90;27.90;;;;;;5087347;28;42964;-73
2022/03/24 13:02:53;;;;;;;;;;;17.90;28.30;;;;;;5086833;27;43947;-74
2022/03/24 13:05:30;;;;;;;;;;;17.90;28.30;;;;;;5088088;28;42874;-74
2022/03/24 13:07:57;;;;;;;;;;;18.30;27.90;;;;;;5087604;28;42953;-74
2022/03/24 13:10:24;;;;;;;;;;;17.90;28.30;;;;;;5087278;27;42936;-75
2022/03/24 13:12:51;;;;;;;;;;;17.90;28.00;;;;;;5087175;28;42951;-75
2022/03/24 13:15:49;;;;;;;;;;;17.80;28.30;;;;;;5087007;27;42886;-75
2022/03/24 13:18:14;;;;;;;;;;;17.90;28.10;;;;;;5063567;28;43477;-74
2022/03/24 13:20:50;;;;;;;;;;;17.90;28.60;;;;;;5087368;27;42948;-77
2022/03/24 13:23:16;;;;;;;;;;;17.80;28.20;;;;;;5087068;27;43546;-76
2022/03/24 13:25:45;;;;;;;;;;;18.00;27.90;;;;;;5087004;28;42779;-76
2022/03/24 13:28:12;;;;;;;;;;;17.90;27.60;;;;;;5086916;27;44276;-75
2022/03/24 13:30:38;;;;;;;;;;;17.90;28.10;;;;;;5087713;28;42914;-76
2022/03/24 13:33:06;;;;;;;;;;;17.90;27.90;;;;;;5087445;28;42759;-75
2022/03/24 13:35:37;;;;;;;;;;;18.00;28.10;;;;;;5087647;27;43040;-74
2022/03/24 13:38:10;;;;;;;;;;;17.90;28.00;;;;;;5086687;27;43602;-75
2022/03/24 13:40:40;;;;;;;;;;;17.90;28.00;;;;;;5086649;27;43543;-74
2022/03/24 13:43:06;;;;;;;;;;;17.90;28.10;;;;;;5086618;27;43609;-78
2022/03/24 13:45:33;;;;;;;;;;;17.80;28.50;;;;;;5087026;28;43011;-74
2022/03/24 13:48:00;;;;;;;;;;;18.00;28.00;;;;;;5086729;28;42979;-77
2022/03/24 13:50:26;;;;;;;;;;;17.90;28.10;;;;;;5086977;27;43047;-73
2022/03/24 13:52:52;;;;;;;;;;;17.90;28.80;;;;;;5087180;28;43356;-74
2022/03/24 13:55:19;;;;;;;;;;;17.90;28.60;;;;;;5087022;28;43000;-73
2022/03/24 13:57:48;;;;;;;;;;;17.90;28.60;;;;;;5086697;27;43041;-73
2022/03/24 14:00:24;;;;;;;;;;;17.90;28.00;;;;;;5087304;27;42902;-75
2022/03/24 14:03:07;;;;;;;;;;;17.90;27.90;;;;;;5087110;27;43653;-75
2022/03/24 14:05:43;;;;;;;;;;;17.80;27.90;;;;;;5084960;27;43012;-75
2022/03/24 14:08:09;;;;;;;;;;;17.70;27.90;;;;;;5085166;28;44338;-74
2022/03/24 14:10:45;;;;;;;;;;;14.70;26.90;;;;;;5086833;27;42988;-73
2022/03/24 14:13:12;;;;;;;;;;;17.90;28.20;;;;;;5085028;27;45293;-73
2022/03/24 14:15:37;;;;;;;;;;;17.80;28.10;;;;;;5086412;27;42861;-74
2022/03/24 14:18:20;;;;;;;;;;;17.80;28.10;;;;;;5086276;28;42949;-74